sensor_id;sensor_type;location;lat;lon;timestamp;P1;durP1;ratioP1;P2;durP2;ratioP2
6999;SDS011;3540;53.242;10.408;2023-03-11T00:02:23;23.60;;;16.87;;
6999;SDS011;3540;53.242;10.408;2023-03-11T00:04:48;27.00;;;17.60;;
6999;SDS011;3540;53.242;10.408;2023-03-11T00:07:14;24.70;;;17.70;;
6999;SDS011;3540;53.242;10.408;2023-03-11T00:09:39;25.10;;;18.07;;
6999;SDS011;3540;53.242;10.408;2023-03-11T00:12:05;26.47;;;18.00;;
6999;SDS011;3540;53.242;10.408;2023-03-11T00:14:31;25.90;;;18.13;;
6999;SDS011;3540;53.242;10.408;2023-03-11T00:16:57;28.97;;;18.00;;
6999;SDS011;3540;53.242;10.408;2023-03-11T00:19:22;26.23;;;18.33;;
6999;SDS011;3540;53.242;10.408;2023-03-11T00:21:48;30.10;;;20.67;;
6999;SDS011;3540;53.242;10.408;2023-03-11T00:24:14;27.27;;;20.40;;
6999;SDS011;3540;53.242;10.408;2023-03-11T00:26:39;30.03;;;20.90;;
6999;SDS011;3540;53.242;10.408;2023-03-11T00:29:05;28.33;;;21.00;;
6999;SDS011;3540;53.242;10.408;2023-03-11T00:31:31;28.33;;;21.40;;
6999;SDS011;3540;53.242;10.408;2023-03-11T00:33:56;29.90;;;21.57;;
6999;SDS011;3540;53.242;10.408;2023-03-11T00:36:23;31.90;;;22.00;;
6999;SDS011;3540;53.242;10.408;2023-03-11T00:38:55;30.60;;;21.57;;
6999;SDS011;3540;53.242;10.408;2023-03-11T00:41:22;30.07;;;21.43;;
6999;SDS011;3540;53.242;10.408;2023-03-11T00:43:47;31.73;;;22.57;;
6999;SDS011;3540;53.242;10.408;2023-03-11T00:46:13;29.87;;;21.77;;
6999;SDS011;3540;53.242;10.408;2023-03-11T00:48:39;32.97;;;22.97;;
6999;SDS011;3540;53.242;10.408;2023-03-11T00:51:05;30.63;;;22.37;;
6999;SDS011;3540;53.242;10.408;2023-03-11T00:53:34;31.80;;;23.23;;
6999;SDS011;3540;53.242;10.408;2023-03-11T00:56:04;39.13;;;24.23;;
6999;SDS011;3540;53.242;10.408;2023-03-11T00:58:31;32.77;;;23.63;;
6999;SDS011;3540;53.242;10.408;2023-03-11T01:00:57;42.03;;;26.70;;
6999;SDS011;3540;53.242;10.408;2023-03-11T01:03:22;45.37;;;27.47;;
6999;SDS011;3540;53.242;10.408;2023-03-11T01:05:48;49.87;;;29.87;;
6999;SDS011;3540;53.242;10.408;2023-03-11T01:08:13;50.00;;;30.67;;
6999;SDS011;3540;53.242;10.408;2023-03-11T01:10:39;51.77;;;30.63;;
6999;SDS011;3540;53.242;10.408;2023-03-11T01:13:05;44.33;;;28.33;;
6999;SDS011;3540;53.242;10.408;2023-03-11T01:15:32;44.10;;;27.73;;
6999;SDS011;3540;53.242;10.408;2023-03-11T01:18:00;52.10;;;30.70;;
6999;SDS011;3540;53.242;10.408;2023-03-11T01:20:26;49.60;;;29.83;;
6999;SDS011;3540;53.242;10.408;2023-03-11T01:22:52;48.70;;;29.70;;
6999;SDS011;3540;53.242;10.408;2023-03-11T01:25:20;50.50;;;30.37;;
6999;SDS011;3540;53.242;10.408;2023-03-11T01:27:47;51.10;;;30.13;;
6999;SDS011;3540;53.242;10.408;2023-03-11T01:30:14;44.87;;;28.50;;
6999;SDS011;3540;53.242;10.408;2023-03-11T01:32:42;45.07;;;29.60;;
6999;SDS011;3540;53.242;10.408;2023-03-11T01:35:09;45.80;;;29.87;;
6999;SDS011;3540;53.242;10.408;2023-03-11T01:37:36;43.37;;;27.23;;
6999;SDS011;3540;53.242;10.408;2023-03-11T01:40:02;44.10;;;27.93;;
6999;SDS011;3540;53.242;10.408;2023-03-11T01:42:27;49.60;;;30.83;;
6999;SDS011;3540;53.242;10.408;2023-03-11T01:44:53;42.57;;;27.43;;
6999;SDS011;3540;53.242;10.408;2023-03-11T01:47:33;45.53;;;28.70;;
6999;SDS011;3540;53.242;10.408;2023-03-11T01:50:03;47.43;;;29.30;;
6999;SDS011;3540;53.242;10.408;2023-03-11T01:52:31;48.30;;;28.10;;
6999;SDS011;3540;53.242;10.408;2023-03-11T01:54:57;45.70;;;29.00;;
6999;SDS011;3540;53.242;10.408;2023-03-11T01:57:23;46.97;;;29.03;;
6999;SDS011;3540;53.242;10.408;2023-03-11T01:59:50;48.33;;;28.87;;
6999;SDS011;3540;53.242;10.408;2023-03-11T02:02:30;49.80;;;30.13;;
6999;SDS011;3540;53.242;10.408;2023-03-11T02:05:02;46.00;;;28.20;;
6999;SDS011;3540;53.242;10.408;2023-03-11T02:07:28;45.20;;;27.80;;
6999;SDS011;3540;53.242;10.408;2023-03-11T02:09:54;44.63;;;29.77;;
6999;SDS011;3540;53.242;10.408;2023-03-11T02:12:20;45.13;;;28.03;;
6999;SDS011;3540;53.242;10.408;2023-03-11T02:14:46;48.17;;;29.07;;
6999;SDS011;3540;53.242;10.408;2023-03-11T02:17:14;47.07;;;29.30;;
6999;SDS011;3540;53.242;10.408;2023-03-11T02:22:31;45.47;;;28.77;;
6999;SDS011;3540;53.242;10.408;2023-03-11T02:27:42;42.97;;;27.20;;
6999;SDS011;3540;53.242;10.408;2023-03-11T02:30:12;43.97;;;27.70;;
6999;SDS011;3540;53.242;10.408;2023-03-11T02:32:39;42.60;;;28.07;;
6999;SDS011;3540;53.242;10.408;2023-03-11T02:35:06;43.53;;;28.00;;
6999;SDS011;3540;53.242;10.408;2023-03-11T02:37:33;42.27;;;27.57;;
6999;SDS011;3540;53.242;10.408;2023-03-11T02:42:46;46.17;;;28.07;;
6999;SDS011;3540;53.242;10.408;2023-03-11T02:45:14;41.50;;;27.73;;
6999;SDS011;3540;53.242;10.408;2023-03-11T02:47:42;39.60;;;27.23;;
6999;SDS011;3540;53.242;10.408;2023-03-11T02:50:08;41.87;;;27.67;;
6999;SDS011;3540;53.242;10.408;2023-03-11T02:52:37;40.17;;;26.37;;
6999;SDS011;3540;53.242;10.408;2023-03-11T02:55:03;40.47;;;26.47;;
6999;SDS011;3540;53.242;10.408;2023-03-11T02:57:30;41.90;;;27.37;;
6999;SDS011;3540;53.242;10.408;2023-03-11T02:59:55;42.20;;;26.30;;
6999;SDS011;3540;53.242;10.408;2023-03-11T03:02:21;41.30;;;28.37;;
6999;SDS011;3540;53.242;10.408;2023-03-11T03:04:47;40.67;;;26.40;;
6999;SDS011;3540;53.242;10.408;2023-03-11T03:07:12;36.27;;;25.57;;
6999;SDS011;3540;53.242;10.408;2023-03-11T03:09:38;39.57;;;25.53;;
6999;SDS011;3540;53.242;10.408;2023-03-11T03:12:04;39.73;;;26.60;;
6999;SDS011;3540;53.242;10.408;2023-03-11T03:14:30;40.40;;;26.63;;
6999;SDS011;3540;53.242;10.408;2023-03-11T03:16:56;39.47;;;26.67;;
6999;SDS011;3540;53.242;10.408;2023-03-11T03:19:21;40.30;;;27.67;;
6999;SDS011;3540;53.242;10.408;2023-03-11T03:21:47;36.90;;;24.37;;
6999;SDS011;3540;53.242;10.408;2023-03-11T03:24:13;39.87;;;24.77;;
6999;SDS011;3540;53.242;10.408;2023-03-11T03:26:39;37.83;;;25.53;;
6999;SDS011;3540;53.242;10.408;2023-03-11T03:29:04;37.10;;;25.63;;
6999;SDS011;3540;53.242;10.408;2023-03-11T03:31:30;36.73;;;25.83;;
6999;SDS011;3540;53.242;10.408;2023-03-11T03:33:56;40.17;;;25.80;;
6999;SDS011;3540;53.242;10.408;2023-03-11T03:36:22;40.93;;;27.00;;
6999;SDS011;3540;53.242;10.408;2023-03-11T03:38:52;38.77;;;26.00;;
6999;SDS011;3540;53.242;10.408;2023-03-11T03:41:19;38.80;;;26.37;;
6999;SDS011;3540;53.242;10.408;2023-03-11T03:43:44;37.90;;;25.20;;
6999;SDS011;3540;53.242;10.408;2023-03-11T03:46:10;35.00;;;25.13;;
6999;SDS011;3540;53.242;10.408;2023-03-11T03:48:35;35.23;;;24.27;;
6999;SDS011;3540;53.242;10.408;2023-03-11T03:51:02;36.47;;;23.83;;
6999;SDS011;3540;53.242;10.408;2023-03-11T03:53:28;34.60;;;23.70;;
6999;SDS011;3540;53.242;10.408;2023-03-11T03:55:54;34.30;;;23.43;;
6999;SDS011;3540;53.242;10.408;2023-03-11T03:58:20;34.37;;;23.90;;
6999;SDS011;3540;53.242;10.408;2023-03-11T04:00:45;36.93;;;24.13;;
6999;SDS011;3540;53.242;10.408;2023-03-11T04:03:11;34.87;;;23.10;;
6999;SDS011;3540;53.242;10.408;2023-03-11T04:05:36;33.07;;;23.50;;
6999;SDS011;3540;53.242;10.408;2023-03-11T04:08:02;35.07;;;22.77;;
6999;SDS011;3540;53.242;10.408;2023-03-11T04:10:28;34.33;;;23.30;;
6999;SDS011;3540;53.242;10.408;2023-03-11T04:12:53;35.23;;;22.67;;
6999;SDS011;3540;53.242;10.408;2023-03-11T04:15:19;37.20;;;23.47;;
6999;SDS011;3540;53.242;10.408;2023-03-11T04:17:45;33.20;;;23.63;;
6999;SDS011;3540;53.242;10.408;2023-03-11T04:20:10;35.27;;;24.13;;
6999;SDS011;3540;53.242;10.408;2023-03-11T04:22:36;36.50;;;25.07;;
6999;SDS011;3540;53.242;10.408;2023-03-11T04:25:02;42.80;;;24.33;;
6999;SDS011;3540;53.242;10.408;2023-03-11T04:27:27;38.47;;;24.47;;
6999;SDS011;3540;53.242;10.408;2023-03-11T04:29:53;36.70;;;25.77;;
6999;SDS011;3540;53.242;10.408;2023-03-11T04:32:19;35.37;;;25.63;;
6999;SDS011;3540;53.242;10.408;2023-03-11T04:34:46;40.10;;;26.03;;
6999;SDS011;3540;53.242;10.408;2023-03-11T04:37:11;36.63;;;24.10;;
6999;SDS011;3540;53.242;10.408;2023-03-11T04:39:37;37.07;;;24.73;;
6999;SDS011;3540;53.242;10.408;2023-03-11T04:42:03;35.87;;;25.17;;
6999;SDS011;3540;53.242;10.408;2023-03-11T04:44:28;34.17;;;23.20;;
6999;SDS011;3540;53.242;10.408;2023-03-11T04:46:54;33.50;;;23.80;;
6999;SDS011;3540;53.242;10.408;2023-03-11T04:49:20;35.03;;;23.37;;
6999;SDS011;3540;53.242;10.408;2023-03-11T04:51:45;34.17;;;23.20;;
6999;SDS011;3540;53.242;10.408;2023-03-11T04:54:11;33.60;;;23.40;;
6999;SDS011;3540;53.242;10.408;2023-03-11T04:56:36;33.70;;;23.00;;
6999;SDS011;3540;53.242;10.408;2023-03-11T04:59:02;32.90;;;22.83;;
6999;SDS011;3540;53.242;10.408;2023-03-11T05:01:28;31.07;;;22.40;;
6999;SDS011;3540;53.242;10.408;2023-03-11T05:03:53;31.63;;;21.87;;
6999;SDS011;3540;53.242;10.408;2023-03-11T05:06:19;31.60;;;21.60;;
6999;SDS011;3540;53.242;10.408;2023-03-11T05:08:44;28.30;;;20.20;;
6999;SDS011;3540;53.242;10.408;2023-03-11T05:11:10;31.80;;;21.40;;
6999;SDS011;3540;53.242;10.408;2023-03-11T05:13:36;31.33;;;20.43;;
6999;SDS011;3540;53.242;10.408;2023-03-11T05:16:01;30.70;;;20.13;;
6999;SDS011;3540;53.242;10.408;2023-03-11T05:18:27;31.83;;;20.60;;
6999;SDS011;3540;53.242;10.408;2023-03-11T05:20:54;28.60;;;19.97;;
6999;SDS011;3540;53.242;10.408;2023-03-11T05:23:20;26.63;;;19.13;;
6999;SDS011;3540;53.242;10.408;2023-03-11T05:25:46;26.83;;;18.50;;
6999;SDS011;3540;53.242;10.408;2023-03-11T05:28:11;29.23;;;20.63;;
6999;SDS011;3540;53.242;10.408;2023-03-11T05:30:37;29.80;;;20.20;;
6999;SDS011;3540;53.242;10.408;2023-03-11T05:33:03;30.37;;;19.57;;
6999;SDS011;3540;53.242;10.408;2023-03-11T05:35:28;29.70;;;20.57;;
6999;SDS011;3540;53.242;10.408;2023-03-11T05:37:54;29.77;;;20.20;;
6999;SDS011;3540;53.242;10.408;2023-03-11T05:40:20;28.27;;;20.03;;
6999;SDS011;3540;53.242;10.408;2023-03-11T05:42:46;26.37;;;19.30;;
6999;SDS011;3540;53.242;10.408;2023-03-11T05:45:12;29.80;;;20.80;;
6999;SDS011;3540;53.242;10.408;2023-03-11T05:47:38;28.47;;;21.10;;
6999;SDS011;3540;53.242;10.408;2023-03-11T05:50:06;30.27;;;21.23;;
6999;SDS011;3540;53.242;10.408;2023-03-11T05:52:33;25.80;;;19.20;;
6999;SDS011;3540;53.242;10.408;2023-03-11T05:54:58;29.13;;;19.80;;
6999;SDS011;3540;53.242;10.408;2023-03-11T05:57:24;29.37;;;20.13;;
6999;SDS011;3540;53.242;10.408;2023-03-11T05:59:50;27.47;;;20.30;;
6999;SDS011;3540;53.242;10.408;2023-03-11T06:02:15;26.53;;;19.53;;
6999;SDS011;3540;53.242;10.408;2023-03-11T06:04:41;28.77;;;19.83;;
6999;SDS011;3540;53.242;10.408;2023-03-11T06:07:06;26.23;;;19.40;;
6999;SDS011;3540;53.242;10.408;2023-03-11T06:09:34;33.43;;;20.07;;
6999;SDS011;3540;53.242;10.408;2023-03-11T06:12:01;27.67;;;20.17;;
6999;SDS011;3540;53.242;10.408;2023-03-11T06:14:27;25.77;;;18.53;;
6999;SDS011;3540;53.242;10.408;2023-03-11T06:16:55;28.37;;;19.37;;
6999;SDS011;3540;53.242;10.408;2023-03-11T06:19:22;26.93;;;18.37;;
6999;SDS011;3540;53.242;10.408;2023-03-11T06:21:49;29.13;;;19.53;;
6999;SDS011;3540;53.242;10.408;2023-03-11T06:24:14;26.73;;;19.07;;
6999;SDS011;3540;53.242;10.408;2023-03-11T06:26:42;28.53;;;19.07;;
6999;SDS011;3540;53.242;10.408;2023-03-11T06:29:13;30.90;;;18.50;;
6999;SDS011;3540;53.242;10.408;2023-03-11T06:31:39;27.13;;;18.23;;
6999;SDS011;3540;53.242;10.408;2023-03-11T06:34:05;27.90;;;17.53;;
6999;SDS011;3540;53.242;10.408;2023-03-11T06:36:31;26.53;;;17.40;;
6999;SDS011;3540;53.242;10.408;2023-03-11T06:38:57;26.53;;;17.33;;
6999;SDS011;3540;53.242;10.408;2023-03-11T06:41:23;25.27;;;17.53;;
6999;SDS011;3540;53.242;10.408;2023-03-11T06:43:48;26.40;;;17.63;;
6999;SDS011;3540;53.242;10.408;2023-03-11T06:46:18;26.10;;;17.63;;
6999;SDS011;3540;53.242;10.408;2023-03-11T06:48:45;26.47;;;17.40;;
6999;SDS011;3540;53.242;10.408;2023-03-11T06:51:12;23.60;;;16.87;;
6999;SDS011;3540;53.242;10.408;2023-03-11T06:53:38;27.87;;;17.77;;
6999;SDS011;3540;53.242;10.408;2023-03-11T06:56:05;29.23;;;18.57;;
6999;SDS011;3540;53.242;10.408;2023-03-11T06:58:33;28.07;;;18.50;;
6999;SDS011;3540;53.242;10.408;2023-03-11T07:01:10;26.17;;;18.20;;
6999;SDS011;3540;53.242;10.408;2023-03-11T07:03:37;27.97;;;17.80;;
6999;SDS011;3540;53.242;10.408;2023-03-11T07:06:03;30.63;;;18.53;;
6999;SDS011;3540;53.242;10.408;2023-03-11T07:08:29;28.23;;;18.63;;
6999;SDS011;3540;53.242;10.408;2023-03-11T07:13:52;27.83;;;19.27;;
6999;SDS011;3540;53.242;10.408;2023-03-11T07:16:19;30.70;;;20.00;;
6999;SDS011;3540;53.242;10.408;2023-03-11T07:18:46;29.67;;;19.60;;
6999;SDS011;3540;53.242;10.408;2023-03-11T07:21:14;31.53;;;20.63;;
6999;SDS011;3540;53.242;10.408;2023-03-11T07:23:41;30.30;;;19.80;;
6999;SDS011;3540;53.242;10.408;2023-03-11T07:26:14;31.07;;;20.33;;
6999;SDS011;3540;53.242;10.408;2023-03-11T07:28:41;29.20;;;19.93;;
6999;SDS011;3540;53.242;10.408;2023-03-11T07:31:09;30.93;;;20.53;;
6999;SDS011;3540;53.242;10.408;2023-03-11T07:33:36;29.87;;;19.57;;
6999;SDS011;3540;53.242;10.408;2023-03-11T07:36:06;30.83;;;20.33;;
6999;SDS011;3540;53.242;10.408;2023-03-11T07:38:36;29.43;;;19.30;;
6999;SDS011;3540;53.242;10.408;2023-03-11T07:41:02;29.60;;;19.57;;
6999;SDS011;3540;53.242;10.408;2023-03-11T07:43:28;30.67;;;21.23;;
6999;SDS011;3540;53.242;10.408;2023-03-11T07:46:08;27.67;;;19.23;;
6999;SDS011;3540;53.242;10.408;2023-03-11T07:48:40;29.57;;;18.67;;
6999;SDS011;3540;53.242;10.408;2023-03-11T07:51:10;28.63;;;17.70;;
6999;SDS011;3540;53.242;10.408;2023-03-11T07:53:40;26.80;;;18.73;;
6999;SDS011;3540;53.242;10.408;2023-03-11T07:56:08;25.90;;;16.87;;
6999;SDS011;3540;53.242;10.408;2023-03-11T07:58:38;26.53;;;16.60;;
6999;SDS011;3540;53.242;10.408;2023-03-11T08:01:14;22.77;;;16.03;;
6999;SDS011;3540;53.242;10.408;2023-03-11T08:03:45;20.13;;;14.50;;
6999;SDS011;3540;53.242;10.408;2023-03-11T08:06:17;23.57;;;16.20;;
6999;SDS011;3540;53.242;10.408;2023-03-11T08:08:45;22.23;;;14.47;;
6999;SDS011;3540;53.242;10.408;2023-03-11T08:11:11;20.70;;;14.83;;
6999;SDS011;3540;53.242;10.408;2023-03-11T08:13:38;20.07;;;14.30;;
6999;SDS011;3540;53.242;10.408;2023-03-11T08:16:05;19.47;;;13.03;;
6999;SDS011;3540;53.242;10.408;2023-03-11T08:18:31;17.40;;;12.20;;
6999;SDS011;3540;53.242;10.408;2023-03-11T08:20:58;19.37;;;12.40;;
6999;SDS011;3540;53.242;10.408;2023-03-11T08:23:32;16.10;;;12.10;;
6999;SDS011;3540;53.242;10.408;2023-03-11T08:25:57;14.67;;;10.27;;
6999;SDS011;3540;53.242;10.408;2023-03-11T08:28:26;15.67;;;10.47;;
6999;SDS011;3540;53.242;10.408;2023-03-11T08:30:52;16.57;;;10.80;;
6999;SDS011;3540;53.242;10.408;2023-03-11T08:33:17;15.37;;;10.07;;
6999;SDS011;3540;53.242;10.408;2023-03-11T08:35:43;12.63;;;9.43;;
6999;SDS011;3540;53.242;10.408;2023-03-11T08:38:08;15.70;;;10.07;;
6999;SDS011;3540;53.242;10.408;2023-03-11T08:40:34;13.50;;;10.10;;
6999;SDS011;3540;53.242;10.408;2023-03-11T08:42:59;14.33;;;9.67;;
6999;SDS011;3540;53.242;10.408;2023-03-11T08:45:25;13.63;;;10.23;;
6999;SDS011;3540;53.242;10.408;2023-03-11T08:47:51;12.97;;;9.70;;
6999;SDS011;3540;53.242;10.408;2023-03-11T08:50:17;17.23;;;10.50;;
6999;SDS011;3540;53.242;10.408;2023-03-11T08:52:43;13.97;;;9.63;;
6999;SDS011;3540;53.242;10.408;2023-03-11T08:55:11;15.87;;;9.50;;
6999;SDS011;3540;53.242;10.408;2023-03-11T08:57:38;12.03;;;9.23;;
6999;SDS011;3540;53.242;10.408;2023-03-11T09:00:05;14.60;;;9.17;;
6999;SDS011;3540;53.242;10.408;2023-03-11T09:02:32;12.60;;;9.23;;
6999;SDS011;3540;53.242;10.408;2023-03-11T09:04:58;13.00;;;9.40;;
6999;SDS011;3540;53.242;10.408;2023-03-11T09:07:23;16.50;;;10.57;;
6999;SDS011;3540;53.242;10.408;2023-03-11T09:09:49;14.83;;;10.30;;
6999;SDS011;3540;53.242;10.408;2023-03-11T09:12:14;16.80;;;10.33;;
6999;SDS011;3540;53.242;10.408;2023-03-11T09:14:41;15.60;;;10.77;;
6999;SDS011;3540;53.242;10.408;2023-03-11T09:17:08;15.60;;;11.43;;
6999;SDS011;3540;53.242;10.408;2023-03-11T09:19:36;18.37;;;10.57;;
6999;SDS011;3540;53.242;10.408;2023-03-11T09:22:02;14.13;;;10.77;;
6999;SDS011;3540;53.242;10.408;2023-03-11T09:24:31;15.60;;;10.57;;
6999;SDS011;3540;53.242;10.408;2023-03-11T09:26:57;16.40;;;11.13;;
6999;SDS011;3540;53.242;10.408;2023-03-11T09:29:23;16.10;;;10.53;;
6999;SDS011;3540;53.242;10.408;2023-03-11T09:31:49;15.57;;;9.50;;
6999;SDS011;3540;53.242;10.408;2023-03-11T09:34:14;12.60;;;9.47;;
6999;SDS011;3540;53.242;10.408;2023-03-11T09:36:40;14.47;;;9.30;;
6999;SDS011;3540;53.242;10.408;2023-03-11T09:39:06;12.70;;;8.70;;
6999;SDS011;3540;53.242;10.408;2023-03-11T09:50:05;14.20;;;7.20;;
6999;SDS011;3540;53.242;10.408;2023-03-11T09:55:51;8.03;;;6.00;;
6999;SDS011;3540;53.242;10.408;2023-03-11T09:58:27;13.47;;;6.47;;
6999;SDS011;3540;53.242;10.408;2023-03-11T10:01:08;11.60;;;5.87;;
6999;SDS011;3540;53.242;10.408;2023-03-11T10:03:46;7.80;;;5.70;;
6999;SDS011;3540;53.242;10.408;2023-03-11T10:06:15;10.07;;;5.90;;
6999;SDS011;3540;53.242;10.408;2023-03-11T10:11:18;11.47;;;5.60;;
6999;SDS011;3540;53.242;10.408;2023-03-11T10:16:55;7.47;;;5.17;;
6999;SDS011;3540;53.242;10.408;2023-03-11T10:22:34;9.47;;;4.97;;
6999;SDS011;3540;53.242;10.408;2023-03-11T10:25:15;9.87;;;5.67;;
6999;SDS011;3540;53.242;10.408;2023-03-11T10:27:48;7.93;;;5.57;;
6999;SDS011;3540;53.242;10.408;2023-03-11T10:35:21;9.87;;;5.37;;
6999;SDS011;3540;53.242;10.408;2023-03-11T10:40:34;9.10;;;5.30;;
6999;SDS011;3540;53.242;10.408;2023-03-11T10:43:20;8.13;;;4.70;;
6999;SDS011;3540;53.242;10.408;2023-03-11T10:45:55;10.10;;;4.50;;
6999;SDS011;3540;53.242;10.408;2023-03-11T10:48:23;8.93;;;4.33;;
6999;SDS011;3540;53.242;10.408;2023-03-11T10:51:02;6.33;;;4.40;;
6999;SDS011;3540;53.242;10.408;2023-03-11T10:53:51;8.00;;;4.23;;
6999;SDS011;3540;53.242;10.408;2023-03-11T10:59:21;10.67;;;5.80;;
6999;SDS011;3540;53.242;10.408;2023-03-11T11:02:00;9.03;;;5.00;;
6999;SDS011;3540;53.242;10.408;2023-03-11T11:06:59;7.97;;;4.40;;
6999;SDS011;3540;53.242;10.408;2023-03-11T11:09:44;8.63;;;4.70;;
6999;SDS011;3540;53.242;10.408;2023-03-11T11:12:14;7.90;;;4.00;;
6999;SDS011;3540;53.242;10.408;2023-03-11T11:17:21;7.83;;;3.97;;
6999;SDS011;3540;53.242;10.408;2023-03-11T11:19:51;7.90;;;4.50;;
6999;SDS011;3540;53.242;10.408;2023-03-11T11:22:18;6.57;;;4.03;;
6999;SDS011;3540;53.242;10.408;2023-03-11T11:24:46;7.57;;;3.80;;
6999;SDS011;3540;53.242;10.408;2023-03-11T11:29:44;5.23;;;3.83;;
6999;SDS011;3540;53.242;10.408;2023-03-11T11:34:39;7.93;;;3.43;;
6999;SDS011;3540;53.242;10.408;2023-03-11T11:37:05;8.13;;;2.93;;
6999;SDS011;3540;53.242;10.408;2023-03-11T11:39:48;7.67;;;3.07;;
6999;SDS011;3540;53.242;10.408;2023-03-11T11:42:20;5.23;;;3.07;;
6999;SDS011;3540;53.242;10.408;2023-03-11T11:44:52;10.30;;;4.97;;
6999;SDS011;3540;53.242;10.408;2023-03-11T11:47:51;6.57;;;2.93;;
6999;SDS011;3540;53.242;10.408;2023-03-11T11:50:25;8.00;;;3.20;;
6999;SDS011;3540;53.242;10.408;2023-03-11T11:56:05;5.00;;;3.23;;
6999;SDS011;3540;53.242;10.408;2023-03-11T11:58:30;9.47;;;3.23;;
6999;SDS011;3540;53.242;10.408;2023-03-11T12:01:02;5.83;;;2.90;;
6999;SDS011;3540;53.242;10.408;2023-03-11T12:06:25;7.23;;;3.10;;
6999;SDS011;3540;53.242;10.408;2023-03-11T12:09:22;5.77;;;2.87;;
6999;SDS011;3540;53.242;10.408;2023-03-11T12:17:44;8.27;;;2.87;;
6999;SDS011;3540;53.242;10.408;2023-03-11T12:20:17;5.50;;;2.40;;
6999;SDS011;3540;53.242;10.408;2023-03-11T12:22:50;4.57;;;2.63;;
6999;SDS011;3540;53.242;10.408;2023-03-11T12:28:15;7.63;;;3.00;;
6999;SDS011;3540;53.242;10.408;2023-03-11T12:30:51;7.20;;;2.90;;
6999;SDS011;3540;53.242;10.408;2023-03-11T12:33:37;4.47;;;2.60;;
6999;SDS011;3540;53.242;10.408;2023-03-11T12:36:04;5.33;;;2.63;;
6999;SDS011;3540;53.242;10.408;2023-03-11T12:38:39;5.53;;;2.50;;
6999;SDS011;3540;53.242;10.408;2023-03-11T12:46:08;4.27;;;2.50;;
6999;SDS011;3540;53.242;10.408;2023-03-11T12:53:52;4.17;;;2.10;;
6999;SDS011;3540;53.242;10.408;2023-03-11T12:59:00;7.50;;;2.40;;
6999;SDS011;3540;53.242;10.408;2023-03-11T13:10:12;6.67;;;2.13;;
6999;SDS011;3540;53.242;10.408;2023-03-11T13:12:49;8.37;;;2.67;;
6999;SDS011;3540;53.242;10.408;2023-03-11T13:25:36;5.03;;;2.00;;
6999;SDS011;3540;53.242;10.408;2023-03-11T13:28:10;6.67;;;2.10;;
6999;SDS011;3540;53.242;10.408;2023-03-11T13:33:57;6.13;;;1.90;;
6999;SDS011;3540;53.242;10.408;2023-03-11T13:42:25;7.03;;;1.83;;
6999;SDS011;3540;53.242;10.408;2023-03-11T13:44:57;5.37;;;2.20;;
6999;SDS011;3540;53.242;10.408;2023-03-11T13:47:23;8.47;;;2.30;;
6999;SDS011;3540;53.242;10.408;2023-03-11T13:52:18;6.77;;;2.20;;
6999;SDS011;3540;53.242;10.408;2023-03-11T13:55:02;4.47;;;2.07;;
6999;SDS011;3540;53.242;10.408;2023-03-11T13:57:53;6.50;;;2.30;;
6999;SDS011;3540;53.242;10.408;2023-03-11T14:00:21;4.43;;;1.77;;
6999;SDS011;3540;53.242;10.408;2023-03-11T14:02:49;8.67;;;2.30;;
6999;SDS011;3540;53.242;10.408;2023-03-11T14:05:26;5.80;;;2.10;;
6999;SDS011;3540;53.242;10.408;2023-03-11T14:08:15;7.77;;;1.80;;
6999;SDS011;3540;53.242;10.408;2023-03-11T14:10:50;6.43;;;2.13;;
6999;SDS011;3540;53.242;10.408;2023-03-11T14:13:27;4.90;;;1.93;;
6999;SDS011;3540;53.242;10.408;2023-03-11T14:18:39;5.13;;;1.90;;
6999;SDS011;3540;53.242;10.408;2023-03-11T14:21:26;5.23;;;1.90;;
6999;SDS011;3540;53.242;10.408;2023-03-11T14:23:52;9.83;;;2.73;;
6999;SDS011;3540;53.242;10.408;2023-03-11T14:28:53;5.37;;;1.90;;
6999;SDS011;3540;53.242;10.408;2023-03-11T14:31:39;7.73;;;2.57;;
6999;SDS011;3540;53.242;10.408;2023-03-11T14:34:17;9.57;;;2.10;;
6999;SDS011;3540;53.242;10.408;2023-03-11T14:39:22;5.47;;;1.80;;
6999;SDS011;3540;53.242;10.408;2023-03-11T14:41:48;6.83;;;2.20;;
6999;SDS011;3540;53.242;10.408;2023-03-11T14:44:15;6.33;;;2.07;;
6999;SDS011;3540;53.242;10.408;2023-03-11T14:46:41;5.70;;;2.10;;
6999;SDS011;3540;53.242;10.408;2023-03-11T14:49:11;6.97;;;1.90;;
6999;SDS011;3540;53.242;10.408;2023-03-11T14:51:41;5.50;;;2.00;;
6999;SDS011;3540;53.242;10.408;2023-03-11T14:54:07;7.50;;;2.13;;
6999;SDS011;3540;53.242;10.408;2023-03-11T14:56:46;8.47;;;1.87;;
6999;SDS011;3540;53.242;10.408;2023-03-11T14:59:26;5.30;;;1.90;;
6999;SDS011;3540;53.242;10.408;2023-03-11T15:01:56;4.07;;;1.60;;
6999;SDS011;3540;53.242;10.408;2023-03-11T15:04:29;3.73;;;1.60;;
6999;SDS011;3540;53.242;10.408;2023-03-11T15:06:58;6.77;;;2.00;;
6999;SDS011;3540;53.242;10.408;2023-03-11T15:09:25;5.73;;;2.40;;
6999;SDS011;3540;53.242;10.408;2023-03-11T15:11:53;6.83;;;1.97;;
6999;SDS011;3540;53.242;10.408;2023-03-11T15:14:25;4.97;;;1.60;;
6999;SDS011;3540;53.242;10.408;2023-03-11T15:19:52;4.73;;;1.40;;
6999;SDS011;3540;53.242;10.408;2023-03-11T15:24:50;4.70;;;1.80;;
6999;SDS011;3540;53.242;10.408;2023-03-11T15:27:22;4.23;;;1.60;;
6999;SDS011;3540;53.242;10.408;2023-03-11T15:29:56;2.10;;;1.27;;
6999;SDS011;3540;53.242;10.408;2023-03-11T15:37:36;3.17;;;1.70;;
6999;SDS011;3540;53.242;10.408;2023-03-11T15:42:44;5.70;;;2.00;;
6999;SDS011;3540;53.242;10.408;2023-03-11T15:45:14;6.20;;;1.77;;
6999;SDS011;3540;53.242;10.408;2023-03-11T15:47:41;2.90;;;1.93;;
6999;SDS011;3540;53.242;10.408;2023-03-11T15:50:29;13.40;;;2.80;;
6999;SDS011;3540;53.242;10.408;2023-03-11T15:52:56;8.20;;;2.70;;
6999;SDS011;3540;53.242;10.408;2023-03-11T15:55:23;11.63;;;3.87;;
6999;SDS011;3540;53.242;10.408;2023-03-11T15:57:51;10.80;;;3.40;;
6999;SDS011;3540;53.242;10.408;2023-03-11T16:00:26;10.40;;;3.20;;
6999;SDS011;3540;53.242;10.408;2023-03-11T16:02:52;5.87;;;2.10;;
6999;SDS011;3540;53.242;10.408;2023-03-11T16:05:22;8.87;;;1.97;;
6999;SDS011;3540;53.242;10.408;2023-03-11T16:07:48;5.30;;;2.30;;
6999;SDS011;3540;53.242;10.408;2023-03-11T16:10:19;6.30;;;1.80;;
6999;SDS011;3540;53.242;10.408;2023-03-11T16:12:46;3.80;;;2.17;;
6999;SDS011;3540;53.242;10.408;2023-03-11T16:15:26;4.53;;;2.07;;
6999;SDS011;3540;53.242;10.408;2023-03-11T16:17:57;8.27;;;1.87;;
6999;SDS011;3540;53.242;10.408;2023-03-11T16:20:25;5.83;;;1.53;;
6999;SDS011;3540;53.242;10.408;2023-03-11T16:22:54;3.33;;;1.70;;
6999;SDS011;3540;53.242;10.408;2023-03-11T16:25:26;5.87;;;1.87;;
6999;SDS011;3540;53.242;10.408;2023-03-11T16:28:00;6.40;;;1.60;;
6999;SDS011;3540;53.242;10.408;2023-03-11T16:30:27;4.87;;;1.80;;
6999;SDS011;3540;53.242;10.408;2023-03-11T16:32:55;5.50;;;2.27;;
6999;SDS011;3540;53.242;10.408;2023-03-11T16:35:21;5.07;;;1.73;;
6999;SDS011;3540;53.242;10.408;2023-03-11T16:37:47;3.23;;;1.73;;
6999;SDS011;3540;53.242;10.408;2023-03-11T16:40:14;7.30;;;2.17;;
6999;SDS011;3540;53.242;10.408;2023-03-11T16:42:42;6.03;;;1.70;;
6999;SDS011;3540;53.242;10.408;2023-03-11T16:45:09;7.13;;;1.90;;
6999;SDS011;3540;53.242;10.408;2023-03-11T16:47:36;8.40;;;2.23;;
6999;SDS011;3540;53.242;10.408;2023-03-11T16:50:02;5.70;;;1.97;;
6999;SDS011;3540;53.242;10.408;2023-03-11T16:52:28;7.57;;;1.63;;
6999;SDS011;3540;53.242;10.408;2023-03-11T16:54:53;7.07;;;1.90;;
6999;SDS011;3540;53.242;10.408;2023-03-11T16:57:19;7.33;;;1.40;;
6999;SDS011;3540;53.242;10.408;2023-03-11T16:59:45;4.53;;;1.60;;
6999;SDS011;3540;53.242;10.408;2023-03-11T17:02:11;5.93;;;1.60;;
6999;SDS011;3540;53.242;10.408;2023-03-11T17:04:37;9.27;;;2.27;;